Time;durP1;ratioP1;P1;durP2;ratioP2;P2;SDS_P1;SDS_P2;PMS_P1;PMS_P2;Temp;Humidity;BMP_temperature;BMP_pressure;BME280_temperature;BME280_humidity;BME280_pressure;Samples;Min_cycle;Max_cycle;Signal;HPM_P1;HPM_P2
2022/09/06 00:00:11;;;;;;;0.00;0.00;;;;;;;;;;5052339;28;20216;-72
2022/09/06 00:02:38;;;;;;;0.00;0.00;;;;;;;;;;5077458;28;20272;-71
2022/09/06 00:05:05;;;;;;;0.00;0.00;;;;;;;;;;5061462;28;20251;-74
2022/09/06 00:07:31;;;;;;;0.10;0.10;;;;;;;;;;5077526;28;20420;-71
2022/09/06 00:09:58;;;;;;;0.10;0.10;;;;;;;;;;5062500;28;20378;-71
2022/09/06 00:12:26;;;;;;;0.00;0.00;;;;;;;;;;5067695;28;20248;-72
2022/09/06 00:14:52;;;;;;;0.20;0.20;;;;;;;;;;5062192;28;20406;-71
2022/09/06 00:17:20;;;;;;;0.10;0.10;;;;;;;;;;5067774;28;20492;-72
2022/09/06 00:19:46;;;;;;;0.08;0.08;;;;;;;;;;5062171;28;20204;-71
2022/09/06 00:22:12;;;;;;;0.10;0.10;;;;;;;;;;5067361;28;20240;-72
2022/09/06 00:24:39;;;;;;;0.00;0.00;;;;;;;;;;5062174;28;20226;-72
2022/09/06 00:27:05;;;;;;;0.00;0.00;;;;;;;;;;5066489;28;20511;-71
2022/09/06 00:29:34;;;;;;;0.05;0.05;;;;;;;;;;5062004;28;20205;-71
2022/09/06 00:32:00;;;;;;;0.03;0.03;;;;;;;;;;5066487;28;20555;-72
2022/09/06 00:34:29;;;;;;;0.03;0.03;;;;;;;;;;5062893;28;20381;-71
2022/09/06 00:36:55;;;;;;;0.10;0.10;;;;;;;;;;5065997;28;20237;-72
2022/09/06 00:39:22;;;;;;;0.00;0.00;;;;;;;;;;5063001;28;20222;-72
2022/09/06 00:41:48;;;;;;;0.10;0.10;;;;;;;;;;5064889;28;20240;-71
2022/09/06 00:44:14;;;;;;;0.10;0.10;;;;;;;;;;5064267;28;20381;-71
2022/09/06 00:46:44;;;;;;;0.00;0.00;;;;;;;;;;5063948;28;20327;-71
2022/09/06 00:49:14;;;;;;;0.10;0.10;;;;;;;;;;5064852;28;20201;-71
2022/09/06 00:51:40;;;;;;;0.03;0.03;;;;;;;;;;5063877;28;20241;-71
2022/09/06 00:54:08;;;;;;;0.00;0.00;;;;;;;;;;5064804;28;20209;-72
2022/09/06 00:56:37;;;;;;;0.00;0.00;;;;;;;;;;5063248;28;20312;-71
2022/09/06 00:59:04;;;;;;;0.03;0.03;;;;;;;;;;5065190;28;20204;-71
2022/09/06 01:01:30;;;;;;;0.10;0.10;;;;;;;;;;5062621;28;20555;-72
2022/09/06 01:03:58;;;;;;;0.05;0.05;;;;;;;;;;5066270;28;20310;-72
2022/09/06 01:06:26;;;;;;;0.05;0.05;;;;;;;;;;5061762;28;20243;-72
2022/09/06 01:08:59;;;;;;;0.00;0.00;;;;;;;;;;5066332;28;20209;-72
2022/09/06 01:11:36;;;;;;;0.05;0.05;;;;;;;;;;5062137;28;20452;-72
2022/09/06 01:14:07;;;;;;;0.10;0.10;;;;;;;;;;5065282;28;20200;-72
2022/09/06 01:16:37;;;;;;;0.08;0.08;;;;;;;;;;5062754;28;20295;-72
2022/09/06 01:19:20;;;;;;;0.00;0.00;;;;;;;;;;5065013;28;20205;-71
2022/09/06 01:21:49;;;;;;;0.05;0.05;;;;;;;;;;5064458;28;20247;-72
2022/09/06 01:24:28;;;;;;;0.10;0.10;;;;;;;;;;5063335;28;20349;-71
2022/09/06 01:27:09;;;;;;;0.00;0.00;;;;;;;;;;5065217;28;20239;-73
2022/09/06 01:29:40;;;;;;;0.05;0.05;;;;;;;;;;5061983;28;20193;-71
2022/09/06 01:32:09;;;;;;;0.08;0.08;;;;;;;;;;5066877;28;20241;-71
2022/09/06 01:34:39;;;;;;;0.10;0.10;;;;;;;;;;5061295;28;20203;-71
2022/09/06 01:37:09;;;;;;;0.03;0.03;;;;;;;;;;5066911;28;20298;-72
2022/09/06 01:39:36;;;;;;;0.00;0.00;;;;;;;;;;5065136;28;20268;-73
2022/09/06 01:42:05;;;;;;;0.10;0.10;;;;;;;;;;5070061;28;20246;-73
2022/09/06 01:44:31;;;;;;;0.10;0.10;;;;;;;;;;5065015;28;20281;-72
2022/09/06 01:47:02;;;;;;;0.08;0.08;;;;;;;;;;5069173;28;20314;-72
2022/09/06 01:49:37;;;;;;;0.00;0.00;;;;;;;;;;5065142;28;20198;-71
2022/09/06 01:52:08;;;;;;;0.00;0.00;;;;;;;;;;5069817;28;20262;-72
2022/09/06 01:54:41;;;;;;;0.10;0.10;;;;;;;;;;5064848;28;20375;-72
2022/09/06 01:57:12;;;;;;;0.10;0.10;;;;;;;;;;5069995;28;20627;-71
2022/09/06 01:59:50;;;;;;;0.10;0.10;;;;;;;;;;5064815;28;20435;-71
2022/09/06 02:02:20;;;;;;;0.00;0.00;;;;;;;;;;5070222;28;20341;-72
2022/09/06 02:04:48;;;;;;;0.00;0.00;;;;;;;;;;5064838;28;20212;-73
2022/09/06 02:07:20;;;;;;;0.00;0.00;;;;;;;;;;5070104;28;20433;-71
2022/09/06 02:09:48;;;;;;;0.10;0.10;;;;;;;;;;5064471;28;20215;-72
2022/09/06 02:12:16;;;;;;;0.00;0.00;;;;;;;;;;5069865;28;20241;-71
2022/09/06 02:14:45;;;;;;;0.00;0.00;;;;;;;;;;5064663;28;20222;-72
2022/09/06 02:17:13;;;;;;;0.10;0.10;;;;;;;;;;5069681;28;20247;-72
2022/09/06 02:19:45;;;;;;;0.10;0.10;;;;;;;;;;5064595;28;20393;-72
2022/09/06 02:22:14;;;;;;;0.05;0.05;;;;;;;;;;5069820;28;20239;-72
2022/09/06 02:24:42;;;;;;;0.10;0.10;;;;;;;;;;5064349;28;20220;-72
2022/09/06 02:27:08;;;;;;;0.00;0.00;;;;;;;;;;5069700;28;20324;-71
2022/09/06 02:29:35;;;;;;;0.00;0.00;;;;;;;;;;5064266;28;20219;-72
2022/09/06 02:32:03;;;;;;;0.03;0.03;;;;;;;;;;5068993;28;20273;-72
2022/09/06 02:34:30;;;;;;;0.00;0.00;;;;;;;;;;5064077;28;20204;-71
2022/09/06 02:36:58;;;;;;;0.05;0.05;;;;;;;;;;5068341;28;20302;-72
2022/09/06 02:39:24;;;;;;;0.10;0.10;;;;;;;;;;5064801;28;20203;-72
2022/09/06 02:41:51;;;;;;;0.10;0.10;;;;;;;;;;5067097;28;20239;-71
2022/09/06 02:44:17;;;;;;;0.10;0.10;;;;;;;;;;5065366;28;20208;-72
2022/09/06 02:46:43;;;;;;;0.00;0.00;;;;;;;;;;5066146;28;20239;-71
2022/09/06 02:49:21;;;;;;;0.00;0.00;;;;;;;;;;5065848;28;20280;-71
2022/09/06 02:51:47;;;;;;;0.00;0.00;;;;;;;;;;5066568;28;20251;-73
2022/09/06 02:54:15;;;;;;;0.10;0.10;;;;;;;;;;5066008;28;20239;-73
2022/09/06 02:56:41;;;;;;;0.00;0.00;;;;;;;;;;5065479;28;20254;-72
2022/09/06 02:59:08;;;;;;;0.03;0.03;;;;;;;;;;5066448;28;20206;-72
2022/09/06 03:01:35;;;;;;;0.10;0.10;;;;;;;;;;5064787;28;20372;-72
2022/09/06 03:04:01;;;;;;;0.00;0.00;;;;;;;;;;5067320;28;20201;-72
2022/09/06 03:06:27;;;;;;;0.10;0.10;;;;;;;;;;5063601;28;20243;-73
2022/09/06 03:08:54;;;;;;;0.10;0.10;;;;;;;;;;5068185;28;20306;-73
2022/09/06 03:11:21;;;;;;;0.10;0.10;;;;;;;;;;5062343;28;20250;-72
2022/09/06 03:13:49;;;;;;;0.10;0.10;;;;;;;;;;5068860;28;20324;-73
2022/09/06 03:16:16;;;;;;;0.10;0.10;;;;;;;;;;5062117;28;20302;-72
2022/09/06 03:18:42;;;;;;;0.10;0.10;;;;;;;;;;5069524;28;20208;-71
2022/09/06 03:21:08;;;;;;;0.10;0.10;;;;;;;;;;5060724;28;20441;-72
2022/09/06 03:23:35;;;;;;;0.10;0.10;;;;;;;;;;5070012;28;20231;-73
2022/09/06 03:26:01;;;;;;;0.00;0.00;;;;;;;;;;5059168;28;20259;-73
2022/09/06 03:28:29;;;;;;;0.10;0.10;;;;;;;;;;5071762;28;20204;-71
2022/09/06 03:30:55;;;;;;;0.10;0.10;;;;;;;;;;5059060;28;20239;-73
2022/09/06 03:33:22;;;;;;;0.10;0.10;;;;;;;;;;5071854;28;20214;-72
2022/09/06 03:35:49;;;;;;;0.10;0.10;;;;;;;;;;5058145;28;20477;-72
2022/09/06 03:38:15;;;;;;;0.10;0.10;;;;;;;;;;5072659;28;20514;-72
2022/09/06 03:40:43;;;;;;;0.05;0.05;;;;;;;;;;5057082;28;20310;-71
2022/09/06 03:43:10;;;;;;;0.10;0.10;;;;;;;;;;5073038;28;20204;-72
2022/09/06 03:45:37;;;;;;;0.10;0.10;;;;;;;;;;5056265;28;20248;-72
2022/09/06 03:48:04;;;;;;;0.10;0.10;;;;;;;;;;5073714;28;20263;-72
2022/09/06 03:50:30;;;;;;;0.10;0.10;;;;;;;;;;5055523;28;20239;-71
2022/09/06 03:52:56;;;;;;;0.10;0.10;;;;;;;;;;5074766;28;20296;-72
2022/09/06 03:55:23;;;;;;;0.10;0.10;;;;;;;;;;5054229;28;20214;-72
2022/09/06 03:57:49;;;;;;;0.03;0.03;;;;;;;;;;5075822;28;20196;-72
2022/09/06 04:00:15;;;;;;;0.10;0.10;;;;;;;;;;5052789;28;20203;-71
2022/09/06 04:02:43;;;;;;;0.10;0.10;;;;;;;;;;5076702;28;20204;-71
2022/09/06 04:05:12;;;;;;;0.10;0.10;;;;;;;;;;5061812;28;20196;-71
2022/09/06 04:07:38;;;;;;;0.05;0.05;;;;;;;;;;5050841;28;20199;-72
2022/09/06 04:10:05;;;;;;;0.03;0.03;;;;;;;;;;5061308;28;20226;-74
2022/09/06 04:12:33;;;;;;;0.10;0.10;;;;;;;;;;5076367;28;20220;-72
2022/09/06 04:15:00;;;;;;;0.10;0.10;;;;;;;;;;5062206;28;20286;-72
2022/09/06 04:17:26;;;;;;;0.03;0.03;;;;;;;;;;5067671;28;20318;-70
2022/09/06 04:19:53;;;;;;;0.10;0.10;;;;;;;;;;5062537;28;20208;-72
2022/09/06 04:22:20;;;;;;;0.08;0.08;;;;;;;;;;5067390;28;20250;-71
2022/09/06 04:24:46;;;;;;;0.10;0.10;;;;;;;;;;5062408;28;20371;-71
2022/09/06 04:27:12;;;;;;;0.10;0.10;;;;;;;;;;5067372;28;20252;-72
2022/09/06 04:29:39;;;;;;;0.10;0.10;;;;;;;;;;5062084;28;20514;-70
2022/09/06 04:32:13;;;;;;;0.10;0.10;;;;;;;;;;5067354;28;20332;-72
2022/09/06 04:34:39;;;;;;;1.17;1.17;;;;;;;;;;5061932;28;20270;-71
2022/09/06 04:37:07;;;;;;;0.00;0.00;;;;;;;;;;5067175;28;20235;-71
2022/09/06 04:39:33;;;;;;;0.10;0.10;;;;;;;;;;5062268;28;20254;-71
2022/09/06 04:42:00;;;;;;;0.05;0.05;;;;;;;;;;5066773;28;20235;-71
2022/09/06 04:44:26;;;;;;;0.10;0.10;;;;;;;;;;5062580;28;20396;-70
2022/09/06 04:47:02;;;;;;;0.10;0.10;;;;;;;;;;5065272;28;20284;-71
2022/09/06 04:49:29;;;;;;;0.10;0.10;;;;;;;;;;5062190;28;20520;-72
2022/09/06 04:51:55;;;;;;;0.03;0.03;;;;;;;;;;5065673;28;20249;-71
2022/09/06 04:54:22;;;;;;;0.10;0.10;;;;;;;;;;5063162;28;20226;-73
2022/09/06 04:56:49;;;;;;;0.03;0.03;;;;;;;;;;5064925;28;20251;-72
2022/09/06 04:59:15;;;;;;;0.00;0.00;;;;;;;;;;5064103;28;20198;-72
2022/09/06 05:01:41;;;;;;;0.10;0.10;;;;;;;;;;5063962;28;20249;-73
2022/09/06 05:04:08;;;;;;;0.03;0.03;;;;;;;;;;5064936;28;20207;-73
2022/09/06 05:06:34;;;;;;;0.00;0.00;;;;;;;;;;5062876;28;20466;-72
2022/09/06 05:09:01;;;;;;;0.05;0.05;;;;;;;;;;5065380;28;20207;-72
2022/09/06 05:11:28;;;;;;;0.00;0.00;;;;;;;;;;5061881;28;20269;-72
2022/09/06 05:13:55;;;;;;;0.10;0.10;;;;;;;;;;5069272;28;20232;-72
2022/09/06 05:16:21;;;;;;;0.03;0.03;;;;;;;;;;5064733;28;20258;-71
2022/09/06 05:18:47;;;;;;;0.10;0.10;;;;;;;;;;5071219;28;20213;-72
2022/09/06 05:21:14;;;;;;;2.55;2.47;;;;;;;;;;5063722;28;20260;-71
2022/09/06 05:23:41;;;;;;;0.00;0.00;;;;;;;;;;5071914;28;20282;-71
2022/09/06 05:26:07;;;;;;;0.00;0.00;;;;;;;;;;5062962;28;20410;-71
2022/09/06 05:28:35;;;;;;;0.10;0.10;;;;;;;;;;5072734;28;20203;-71
2022/09/06 05:31:05;;;;;;;0.00;0.00;;;;;;;;;;5062067;28;20239;-71
2022/09/06 05:33:31;;;;;;;0.07;0.07;;;;;;;;;;5072794;28;20508;-71
2022/09/06 05:35:57;;;;;;;0.05;0.05;;;;;;;;;;5061571;28;20341;-71
2022/09/06 05:38:24;;;;;;;0.00;0.00;;;;;;;;;;5073795;28;20381;-73
2022/09/06 05:40:51;;;;;;;0.10;0.10;;;;;;;;;;5060264;28;20245;-72
2022/09/06 05:43:17;;;;;;;0.00;0.00;;;;;;;;;;5074649;28;20242;-72
2022/09/06 05:45:45;;;;;;;0.00;0.00;;;;;;;;;;5059514;28;20358;-72
2022/09/06 05:48:11;;;;;;;0.10;0.10;;;;;;;;;;5075396;28;20231;-71
2022/09/06 05:50:37;;;;;;;0.00;0.00;;;;;;;;;;5058756;28;20241;-71
2022/09/06 05:53:04;;;;;;;0.10;0.10;;;;;;;;;;5076213;28;20393;-72
2022/09/06 05:55:30;;;;;;;0.10;0.10;;;;;;;;;;5058030;28;20333;-73
2022/09/06 05:57:59;;;;;;;0.10;0.10;;;;;;;;;;5077016;28;20497;-74
2022/09/06 06:00:25;;;;;;;0.08;0.08;;;;;;;;;;5056454;28;20386;-73
2022/09/06 06:02:53;;;;;;;0.00;0.00;;;;;;;;;;5078217;28;20210;-73
2022/09/06 06:05:19;;;;;;;0.00;0.00;;;;;;;;;;5055865;28;20199;-72
2022/09/06 06:07:46;;;;;;;0.03;0.03;;;;;;;;;;5078271;28;20539;-73
2022/09/06 06:10:12;;;;;;;0.10;0.10;;;;;;;;;;5054846;28;20218;-73
2022/09/06 06:12:38;;;;;;;0.00;0.00;;;;;;;;;;5079007;28;20223;-73
2022/09/06 06:15:07;;;;;;;0.10;0.10;;;;;;;;;;5060187;28;20211;-73
2022/09/06 06:17:34;;;;;;;0.05;0.05;;;;;;;;;;5079282;28;20216;-72
2022/09/06 06:20:02;;;;;;;0.10;0.10;;;;;;;;;;5064469;28;20232;-74
2022/09/06 06:22:28;;;;;;;0.05;0.05;;;;;;;;;;5069449;28;20609;-72
2022/09/06 06:24:55;;;;;;;0.03;0.03;;;;;;;;;;5062815;28;20286;-72
2022/09/06 06:27:21;;;;;;;0.10;0.10;;;;;;;;;;5069121;28;20254;-73
2022/09/06 06:29:47;;;;;;;0.00;0.00;;;;;;;;;;5064342;28;20396;-71
2022/09/06 06:32:14;;;;;;;0.10;0.10;;;;;;;;;;5069190;28;20586;-71
2022/09/06 06:34:40;;;;;;;0.10;0.10;;;;;;;;;;5063995;28;20196;-72
2022/09/06 06:37:08;;;;;;;0.00;0.00;;;;;;;;;;5069231;28;20251;-72
2022/09/06 06:39:34;;;;;;;0.05;0.05;;;;;;;;;;5064027;28;20210;-72
2022/09/06 06:42:01;;;;;;;0.03;0.03;;;;;;;;;;5068687;28;20297;-72
2022/09/06 06:44:27;;;;;;;0.00;0.00;;;;;;;;;;5064363;28;20208;-73
2022/09/06 06:46:56;;;;;;;0.00;0.00;;;;;;;;;;5067304;28;20376;-72
2022/09/06 06:49:22;;;;;;;0.00;0.00;;;;;;;;;;5064631;28;20507;-73
2022/09/06 06:51:49;;;;;;;0.08;0.08;;;;;;;;;;5066885;28;20242;-71
2022/09/06 06:54:17;;;;;;;0.00;0.00;;;;;;;;;;5065725;28;20425;-71
2022/09/06 06:56:44;;;;;;;0.00;0.00;;;;;;;;;;5065949;28;20258;-70
2022/09/06 06:59:11;;;;;;;0.03;0.03;;;;;;;;;;5066186;28;20204;-71
2022/09/06 07:01:37;;;;;;;0.00;0.00;;;;;;;;;;5065510;28;20488;-72
2022/09/06 07:04:04;;;;;;;0.05;0.05;;;;;;;;;;5062562;28;20207;-72
2022/09/06 07:06:31;;;;;;;0.03;0.03;;;;;;;;;;5064546;28;20298;-72
2022/09/06 07:08:58;;;;;;;0.00;0.00;;;;;;;;;;5068317;28;20212;-73
2022/09/06 07:11:25;;;;;;;0.10;0.10;;;;;;;;;;5063646;28;20256;-73
2022/09/06 07:13:52;;;;;;;0.10;0.10;;;;;;;;;;5069278;28;20393;-71
2022/09/06 07:16:19;;;;;;;0.00;0.00;;;;;;;;;;5062807;28;20285;-72
2022/09/06 07:18:48;;;;;;;0.00;0.00;;;;;;;;;;5069159;28;20274;-72
2022/09/06 07:21:15;;;;;;;0.00;0.00;;;;;;;;;;5062481;28;20247;-71
2022/09/06 07:23:42;;;;;;;0.10;0.10;;;;;;;;;;5069826;28;20267;-72
2022/09/06 07:26:13;;;;;;;0.00;0.00;;;;;;;;;;5060664;28;20249;-72
2022/09/06 07:28:40;;;;;;;0.10;0.10;;;;;;;;;;5070619;28;20220;-72
2022/09/06 07:31:07;;;;;;;0.10;0.10;;;;;;;;;;5061519;28;20276;-74
2022/09/06 07:33:39;;;;;;;0.05;0.05;;;;;;;;;;5070647;28;20201;-72
2022/09/06 07:36:06;;;;;;;0.00;0.00;;;;;;;;;;5060536;28;20566;-72
2022/09/06 07:38:33;;;;;;;0.03;0.03;;;;;;;;;;5070809;28;20394;-72
2022/09/06 07:41:00;;;;;;;0.00;0.00;;;;;;;;;;5059961;28;20245;-72
2022/09/06 07:43:27;;;;;;;0.00;0.00;;;;;;;;;;5071490;28;20519;-74
2022/09/06 07:46:02;;;;;;;0.10;0.10;;;;;;;;;;5057284;28;20281;-71
2022/09/06 07:48:30;;;;;;;0.00;0.00;;;;;;;;;;5071233;28;20224;-72
2022/09/06 07:51:03;;;;;;;0.00;0.00;;;;;;;;;;5059545;28;20289;-72
2022/09/06 07:53:29;;;;;;;0.00;0.00;;;;;;;;;;5071344;28;20299;-73
2022/09/06 07:55:55;;;;;;;0.05;0.05;;;;;;;;;;5058959;28;20259;-73
2022/09/06 07:58:24;;;;;;;0.10;0.10;;;;;;;;;;5071913;28;20213;-71
2022/09/06 08:00:50;;;;;;;0.00;0.00;;;;;;;;;;5058527;28;20430;-71
2022/09/06 08:03:18;;;;;;;0.10;0.10;;;;;;;;;;5073149;28;20212;-72
2022/09/06 08:05:48;;;;;;;0.10;0.10;;;;;;;;;;5057701;28;20305;-72
2022/09/06 08:08:14;;;;;;;0.10;0.10;;;;;;;;;;5072563;28;20228;-72
2022/09/06 08:10:41;;;;;;;0.08;0.08;;;;;;;;;;5056943;28;20326;-65
2022/09/06 08:13:07;;;;;;;0.10;0.10;;;;;;;;;;5073208;28;20224;-66
2022/09/06 08:15:33;;;;;;;0.10;0.10;;;;;;;;;;5055792;28;20239;-66
2022/09/06 08:18:00;;;;;;;0.00;0.00;;;;;;;;;;5074028;28;20397;-65
2022/09/06 08:20:27;;;;;;;0.03;0.03;;;;;;;;;;5054885;28;20254;-65
2022/09/06 08:22:54;;;;;;;0.00;0.00;;;;;;;;;;5074995;28;20227;-65
2022/09/06 08:25:21;;;;;;;0.10;0.10;;;;;;;;;;5054112;28;20293;-65
2022/09/06 08:27:48;;;;;;;0.00;0.00;;;;;;;;;;5075613;28;20213;-63
2022/09/06 08:30:14;;;;;;;0.00;0.00;;;;;;;;;;5052981;28;20207;-65
2022/09/06 08:32:41;;;;;;;0.00;0.00;;;;;;;;;;5076504;28;20225;-65
2022/09/06 08:35:08;;;;;;;0.10;0.10;;;;;;;;;;5051975;28;20210;-65
2022/09/06 08:37:36;;;;;;;0.00;0.00;;;;;;;;;;5077456;28;20426;-64
2022/09/06 08:40:02;;;;;;;0.00;0.00;;;;;;;;;;5062096;28;20215;-65
2022/09/06 08:42:30;;;;;;;0.10;0.10;;;;;;;;;;5067295;28;20239;-64
2022/09/06 08:44:59;;;;;;;0.00;0.00;;;;;;;;;;5061977;28;20214;-65
2022/09/06 08:47:25;;;;;;;0.10;0.10;;;;;;;;;;5067726;28;20267;-64
2022/09/06 08:49:53;;;;;;;0.00;0.00;;;;;;;;;;5066325;28;20438;-65
2022/09/06 08:52:34;;;;;;;0.00;0.00;;;;;;;;;;5071053;28;20308;-65
2022/09/06 08:55:09;;;;;;;0.00;0.00;;;;;;;;;;5065913;28;20220;-63
2022/09/06 08:57:42;;;;;;;0.00;0.00;;;;;;;;;;5054704;28;20269;-65
2022/09/06 09:00:11;;;;;;;0.00;0.00;;;;;;;;;;5055902;28;20252;-65
2022/09/06 09:02:41;;;;;;;0.00;0.00;;;;;;;;;;5080547;28;20301;-65
2022/09/06 09:05:19;;;;;;;0.00;0.00;;;;;;;;;;5056189;28;20270;-65
2022/09/06 09:07:50;;;;;;;0.10;0.10;;;;;;;;;;5079182;28;20249;-65
2022/09/06 09:10:21;;;;;;;0.00;0.00;;;;;;;;;;5056925;28;20252;-65
2022/09/06 09:12:48;;;;;;;0.10;0.10;;;;;;;;;;5079216;28;20210;-65
2022/09/06 09:15:15;;;;;;;0.00;0.00;;;;;;;;;;5056785;28;20238;-65
2022/09/06 09:17:41;;;;;;;0.00;0.00;;;;;;;;;;5080096;28;20191;-65
2022/09/06 09:20:09;;;;;;;0.10;0.10;;;;;;;;;;5055665;28;20217;-66
2022/09/06 09:22:36;;;;;;;0.10;0.10;;;;;;;;;;5080204;28;20235;-64
2022/09/06 09:25:04;;;;;;;0.00;0.00;;;;;;;;;;5065676;28;20419;-65
2022/09/06 09:27:32;;;;;;;0.00;0.00;;;;;;;;;;5053904;28;20439;-64
2022/09/06 09:30:00;;;;;;;0.10;0.10;;;;;;;;;;5065615;28;20210;-65
2022/09/06 09:32:30;;;;;;;0.00;0.00;;;;;;;;;;5070501;28;20292;-65
2022/09/06 09:35:14;;;;;;;0.00;0.00;;;;;;;;;;5065237;28;20211;-64
2022/09/06 09:37:41;;;;;;;0.00;0.00;;;;;;;;;;5065092;28;20188;-65
2022/09/06 09:40:12;;;;;;;0.00;0.00;;;;;;;;;;5055322;28;20483;-66
2022/09/06 09:42:40;;;;;;;0.00;0.00;;;;;;;;;;5079424;28;20230;-67
2022/09/06 09:45:21;;;;;;;0.00;0.00;;;;;;;;;;5055235;28;20251;-67
2022/09/06 09:47:48;;;;;;;0.00;0.00;;;;;;;;;;5078471;28;20218;-65
2022/09/06 09:50:22;;;;;;;0.10;0.10;;;;;;;;;;5055659;28;20206;-65
2022/09/06 09:52:48;;;;;;;0.00;0.00;;;;;;;;;;5078667;28;20196;-65
2022/09/06 09:55:14;;;;;;;0.10;0.10;;;;;;;;;;5055780;28;20211;-65
2022/09/06 09:57:45;;;;;;;0.10;0.10;;;;;;;;;;5078868;28;20199;-64
2022/09/06 10:00:13;;;;;;;0.10;0.10;;;;;;;;;;5055333;28;20194;-65
2022/09/06 10:02:40;;;;;;;0.00;0.00;;;;;;;;;;5079151;28;20210;-66
2022/09/06 10:05:09;;;;;;;0.00;0.00;;;;;;;;;;5056204;28;20300;-66
2022/09/06 10:07:42;;;;;;;0.00;0.00;;;;;;;;;;5079326;28;20301;-64
2022/09/06 10:10:12;;;;;;;0.00;0.00;;;;;;;;;;5054823;28;20435;-66
2022/09/06 10:12:39;;;;;;;0.00;0.00;;;;;;;;;;5079219;28;20262;-65
2022/09/06 10:15:08;;;;;;;1.23;1.23;;;;;;;;;;5058667;28;20249;-65
2022/09/06 10:17:35;;;;;;;0.08;0.08;;;;;;;;;;5079739;28;20225;-64
2022/09/06 10:20:05;;;;;;;0.00;0.00;;;;;;;;;;5064638;28;20278;-66
2022/09/06 10:22:32;;;;;;;0.00;0.00;;;;;;;;;;5052879;28;20222;-65
2022/09/06 10:25:22;;;;;;;0.00;0.00;;;;;;;;;;5064565;28;20213;-64
2022/09/06 10:27:59;;;;;;;0.00;0.00;;;;;;;;;;5064281;28;20328;-66
2022/09/06 10:30:27;;;;;;;0.08;0.08;;;;;;;;;;5056568;28;20249;-66
2022/09/06 10:32:59;;;;;;;0.00;0.00;;;;;;;;;;5076609;28;20235;-65
2022/09/06 10:35:27;;;;;;;0.10;0.10;;;;;;;;;;5056525;28;20471;-64
2022/09/06 10:38:12;;;;;;;0.10;0.10;;;;;;;;;;5076846;28;20270;-64
2022/09/06 10:40:42;;;;;;;0.05;0.05;;;;;;;;;;5057809;28;20241;-63
2022/09/06 10:43:14;;;;;;;0.03;0.03;;;;;;;;;;5074714;28;20278;-64
2022/09/06 10:45:46;;;;;;;0.08;0.08;;;;;;;;;;5058202;28;20315;-64
2022/09/06 10:48:16;;;;;;;0.10;0.10;;;;;;;;;;5074306;28;20391;-66
2022/09/06 10:50:46;;;;;;;0.00;0.00;;;;;;;;;;5058251;28;20554;-65
2022/09/06 10:53:15;;;;;;;0.00;0.00;;;;;;;;;;5074313;28;20193;-66
2022/09/06 10:55:43;;;;;;;0.00;0.00;;;;;;;;;;5058331;28;20263;-67
2022/09/06 10:58:10;;;;;;;0.05;0.05;;;;;;;;;;5074459;28;20376;-65
2022/09/06 11:00:40;;;;;;;0.00;0.00;;;;;;;;;;5057321;28;20492;-64
2022/09/06 11:03:12;;;;;;;0.00;0.00;;;;;;;;;;5074801;28;20194;-66
2022/09/06 11:05:41;;;;;;;0.00;0.00;;;;;;;;;;5057681;28;20241;-66
2022/09/06 11:08:10;;;;;;;0.10;0.10;;;;;;;;;;5073864;28;20225;-65
2022/09/06 11:10:39;;;;;;;0.00;0.00;;;;;;;;;;5056401;28;20243;-64
2022/09/06 11:13:08;;;;;;;0.00;0.00;;;;;;;;;;5074319;28;20233;-64
2022/09/06 11:15:41;;;;;;;0.00;0.00;;;;;;;;;;5056851;28;20312;-65
2022/09/06 11:18:11;;;;;;;0.10;0.10;;;;;;;;;;5073955;28;20197;-64
2022/09/06 11:20:40;;;;;;;0.00;0.00;;;;;;;;;;5057290;28;20289;-65
2022/09/06 11:23:22;;;;;;;0.03;0.03;;;;;;;;;;5074033;28;20225;-63
2022/09/06 11:26:06;;;;;;;0.00;0.00;;;;;;;;;;5056798;28;20479;-64
2022/09/06 11:28:35;;;;;;;0.00;0.00;;;;;;;;;;5070702;28;20498;-64
2022/09/06 11:31:02;;;;;;;0.00;0.00;;;;;;;;;;5060102;28;20243;-66
2022/09/06 11:33:34;;;;;;;0.10;0.10;;;;;;;;;;5071161;28;20207;-65
2022/09/06 11:36:16;;;;;;;0.00;0.00;;;;;;;;;;5059786;28;20250;-63
2022/09/06 11:38:42;;;;;;;0.10;0.10;;;;;;;;;;5069100;28;20206;-66
2022/09/06 11:41:14;;;;;;;0.08;0.08;;;;;;;;;;5060695;28;20246;-64
2022/09/06 11:43:45;;;;;;;0.00;0.00;;;;;;;;;;5069518;28;20389;-64
2022/09/06 11:46:42;;;;;;;0.05;0.05;;;;;;;;;;5061172;28;20246;-65
2022/09/06 11:49:27;;;;;;;0.10;0.10;;;;;;;;;;5065655;28;20226;-65
2022/09/06 11:51:53;;;;;;;0.00;0.00;;;;;;;;;;5066201;28;20307;-64
2022/09/06 11:54:25;;;;;;;0.00;0.00;;;;;;;;;;5064136;28;20531;-64
2022/09/06 11:56:54;;;;;;;0.00;0.00;;;;;;;;;;5066288;28;20374;-64
2022/09/06 11:59:29;;;;;;;0.00;0.00;;;;;;;;;;5064602;28;20272;-64
2022/09/06 12:02:02;;;;;;;0.00;0.00;;;;;;;;;;5066766;28;20308;-64
2022/09/06 12:04:48;;;;;;;0.08;0.08;;;;;;;;;;5063481;28;20236;-64
2022/09/06 12:07:15;;;;;;;0.05;0.05;;;;;;;;;;5068222;28;20253;-64
2022/09/06 12:09:42;;;;;;;0.00;0.00;;;;;;;;;;5063159;28;20473;-65
2022/09/06 12:12:09;;;;;;;0.05;0.05;;;;;;;;;;5068148;28;20251;-66
2022/09/06 12:14:39;;;;;;;0.00;0.00;;;;;;;;;;5062968;28;20273;-64
2022/09/06 12:17:26;;;;;;;0.00;0.00;;;;;;;;;;5068199;28;20268;-64
2022/09/06 12:19:54;;;;;;;0.10;0.10;;;;;;;;;;5062987;28;20193;-64
2022/09/06 12:22:40;;;;;;;0.00;0.00;;;;;;;;;;5068041;28;20300;-65
2022/09/06 12:25:28;;;;;;;0.10;0.10;;;;;;;;;;5052593;28;20211;-63
2022/09/06 12:27:56;;;;;;;0.00;0.00;;;;;;;;;;5075155;28;20264;-64
2022/09/06 12:30:33;;;;;;;0.00;0.00;;;;;;;;;;5054881;28;20467;-64
2022/09/06 12:33:00;;;;;;;0.00;0.00;;;;;;;;;;5074967;28;20271;-65
2022/09/06 12:35:29;;;;;;;0.00;0.00;;;;;;;;;;5055123;28;20241;-65
2022/09/06 12:37:57;;;;;;;0.00;0.00;;;;;;;;;;5074944;28;20520;-64
2022/09/06 12:40:25;;;;;;;0.00;0.00;;;;;;;;;;5054956;28;20206;-65
2022/09/06 12:42:52;;;;;;;0.00;0.00;;;;;;;;;;5075876;28;20195;-63
2022/09/06 12:45:20;;;;;;;0.00;0.00;;;;;;;;;;5053852;28;20205;-64
2022/09/06 12:47:46;;;;;;;0.00;0.00;;;;;;;;;;5076570;28;20220;-64
2022/09/06 12:50:15;;;;;;;0.00;0.00;;;;;;;;;;5053325;28;20235;-64
2022/09/06 12:52:49;;;;;;;0.00;0.00;;;;;;;;;;5076489;28;20204;-64
2022/09/06 12:55:20;;;;;;;0.00;0.00;;;;;;;;;;5053743;28;20219;-65
2022/09/06 12:57:50;;;;;;;0.00;0.00;;;;;;;;;;5075932;28;20262;-63
2022/09/06 13:00:16;;;;;;;0.00;0.00;;;;;;;;;;5053792;28;20510;-65
2022/09/06 13:02:48;;;;;;;0.00;0.00;;;;;;;;;;5076316;28;20210;-65
2022/09/06 13:05:14;;;;;;;0.00;0.00;;;;;;;;;;5053378;28;20203;-64
2022/09/06 13:07:43;;;;;;;0.00;0.00;;;;;;;;;;5076879;28;20447;-65
2022/09/06 13:10:12;;;;;;;0.00;0.00;;;;;;;;;;5052616;28;20413;-65
2022/09/06 13:12:39;;;;;;;0.00;0.00;;;;;;;;;;5076789;28;20241;-64
2022/09/06 13:15:11;;;;;;;0.10;0.10;;;;;;;;;;5054817;28;20214;-65
2022/09/06 13:17:37;;;;;;;0.10;0.10;;;;;;;;;;5077113;28;20219;-65
2022/09/06 13:20:10;;;;;;;0.10;0.10;;;;;;;;;;5062115;28;20208;-66
2022/09/06 13:22:38;;;;;;;0.00;0.00;;;;;;;;;;5050769;28;20423;-66
2022/09/06 13:25:05;;;;;;;0.00;0.00;;;;;;;;;;5062093;28;20213;-65
2022/09/06 13:27:36;;;;;;;0.10;0.10;;;;;;;;;;5067391;28;20214;-65
2022/09/06 13:30:04;;;;;;;0.00;0.00;;;;;;;;;;5062217;28;20397;-66
2022/09/06 13:32:32;;;;;;;0.00;0.00;;;;;;;;;;5050751;28;20210;-63
2022/09/06 13:34:59;;;;;;;0.00;0.00;;;;;;;;;;5065134;28;20210;-64
2022/09/06 13:37:26;;;;;;;0.00;0.00;;;;;;;;;;5054749;28;20549;-65
2022/09/06 13:39:53;;;;;;;0.10;0.10;;;;;;;;;;5065624;28;20202;-64
2022/09/06 13:42:27;;;;;;;0.00;0.00;;;;;;;;;;5070908;28;20405;-66
2022/09/06 13:44:54;;;;;;;0.10;0.10;;;;;;;;;;5065694;28;20205;-65
2022/09/06 13:47:20;;;;;;;0.00;0.00;;;;;;;;;;5070688;28;20321;-65
2022/09/06 13:49:48;;;;;;;0.00;0.00;;;;;;;;;;5065793;28;20449;-65
2022/09/06 13:52:17;;;;;;;0.00;0.00;;;;;;;;;;5070641;28;20241;-65
2022/09/06 13:54:44;;;;;;;0.00;0.00;;;;;;;;;;5065524;28;20213;-65
2022/09/06 13:57:10;;;;;;;0.10;0.10;;;;;;;;;;5070682;28;20388;-65
2022/09/06 13:59:37;;;;;;;0.00;0.00;;;;;;;;;;5065560;28;20212;-65
2022/09/06 14:02:04;;;;;;;0.00;0.00;;;;;;;;;;5070166;28;20289;-65
2022/09/06 14:04:31;;;;;;;0.00;0.00;;;;;;;;;;5065700;28;20378;-65
2022/09/06 14:06:59;;;;;;;0.10;0.10;;;;;;;;;;5069436;28;20242;-65
2022/09/06 14:09:25;;;;;;;0.00;0.00;;;;;;;;;;5066255;28;20225;-67
2022/09/06 14:11:52;;;;;;;1.40;1.40;;;;;;;;;;5068461;28;20243;-65
2022/09/06 14:14:18;;;;;;;0.08;0.08;;;;;;;;;;5066664;28;20253;-64
2022/09/06 14:16:45;;;;;;;0.08;0.08;;;;;;;;;;5067529;28;20238;-65
2022/09/06 14:19:11;;;;;;;0.10;0.10;;;;;;;;;;5067960;28;20201;-65
2022/09/06 14:21:38;;;;;;;0.00;0.00;;;;;;;;;;5066398;28;20246;-64
2022/09/06 14:24:06;;;;;;;0.00;0.00;;;;;;;;;;5068702;28;20376;-65
2022/09/06 14:26:33;;;;;;;0.00;0.00;;;;;;;;;;5065760;28;20451;-67
2022/09/06 14:28:59;;;;;;;0.05;0.05;;;;;;;;;;5068966;28;20258;-64
2022/09/06 14:31:26;;;;;;;0.00;0.00;;;;;;;;;;5064735;28;20304;-66
2022/09/06 14:33:53;;;;;;;0.00;0.00;;;;;;;;;;5069597;28;20289;-66
2022/09/06 14:36:21;;;;;;;0.00;0.00;;;;;;;;;;5064193;28;20257;-67
2022/09/06 14:38:48;;;;;;;0.00;0.00;;;;;;;;;;5070361;28;20523;-66
2022/09/06 14:41:17;;;;;;;0.00;0.00;;;;;;;;;;5063014;28;20266;-65
2022/09/06 14:43:44;;;;;;;0.00;0.00;;;;;;;;;;5071348;28;20214;-66
2022/09/06 14:46:11;;;;;;;0.00;0.00;;;;;;;;;;5061590;28;20288;-67
2022/09/06 14:48:37;;;;;;;0.00;0.00;;;;;;;;;;5071171;28;20206;-65
2022/09/06 14:51:07;;;;;;;0.05;0.05;;;;;;;;;;5061721;28;20254;-65